Aigaion — SYMC — position and weather

sailwx.info

Track history (hours):
 
Tides and Currents Weather Stations Pressure Air Temp Water Temp Dewpoint Dewpoint Depression Visibility Wind Speed Wind Dir Waves Ship Positions

Aigaion

Last reported at 2017-Aug-07 15:30 UTC. Time now 2017-Aug-17 19:33 UTC.
Position S 16°23' E 117°35'.
Warning: this ship's position is 10 days out of date.

Length 289 m; draft 17.8 m.

Type: Cargo ship. MMSI: 240174000.

Date/timePositionNaut miles runAvg speedWind from/ knotsBaromVisibWave heightAir tempDewpointWater temp
2017-Aug-07 15:30S 16°23' E 117°35'5 9.6
2017-Aug-07 14:58S 16°28' E 117°36'149 9.7
2017-Aug-06 23:39S 18°53' E 118°12'1 9.7
2017-Aug-06 23:30S 18°54' E 118°12'7 9.5
2017-Aug-06 22:44S 19°01' E 118°14'3 9.2
2017-Aug-06 22:27S 19°04' E 118°15'8 9.2
2017-Aug-06 21:32S 19°12' E 118°17'0 9.2
2017-Aug-06 21:30S 19°12' E 118°17'5 9.4
2017-Aug-06 20:59S 19°17' E 118°18'5 9.6
2017-Aug-06 20:30S 19°21' E 118°19'5 9.8
2017-Aug-06 20:00S 19°26' E 118°20'5 9.9
2017-Aug-06 19:29S 19°31' E 118°22'510.0
2017-Aug-06 19:00S 19°36' E 118°23'510.1
2017-Aug-06 18:28S 19°41' E 118°24'910.0
2017-Aug-06 17:37S 19°49' E 118°26'1 9.5
2017-Aug-06 17:30S 19°50' E 118°26'5 7.2
2017-Aug-06 16:48S 19°55' E 118°27'3 9.6
2017-Aug-06 16:29S 19°58' E 118°27'611.5
2017-Aug-06 16:00S 20°03' E 118°25'611.0
2017-Aug-06 15:30S 20°08' E 118°29'5 9.7
2017-Aug-06 14:59S 20°12' E 118°32'4 8.3
2017-Aug-06 14:28S 20°15' E 118°34'4 4.1
2017-Aug-06 13:30S 20°19' E 118°35'0 0.0
2017-Aug-06 13:00S 20°19' E 118°35'0 0.0
2017-Aug-06 12:30S 20°19' E 118°35'0 0.0
2017-Aug-06 12:00S 20°19' E 118°35'0 0.0
2017-Aug-06 11:30S 20°19' E 118°35'0 0.0
2017-Aug-06 10:48S 20°19' E 118°35'0 0.0
2017-Aug-06 10:30S 20°19' E 118°35'0 0.0
2017-Aug-06 09:12S 20°19' E 118°35'0 0.0
2017-Aug-06 08:48S 20°19' E 118°35'0 0.0
2017-Aug-06 08:24S 20°19' E 118°35'0 0.0
2017-Aug-06 08:00S 20°19' E 118°35'0 0.0
2017-Aug-05 12:30S 20°19' E 118°35'0 0.0
2017-Aug-05 12:00S 20°19' E 118°35'0 0.0
2017-Aug-05 11:30S 20°19' E 118°35'0 0.0
2017-Aug-05 11:00S 20°19' E 118°35'0 0.0
2017-Aug-05 10:24S 20°19' E 118°35'0 0.0
2017-Aug-05 08:54S 20°19' E 118°35'0 0.0
2017-Aug-05 08:24S 20°19' E 118°35'0 0.0
2017-Aug-05 07:54S 20°19' E 118°35'13 1.0
2017-Aug-04 18:41S 20°06' E 118°32'0 0.0
2017-Aug-03 21:35S 20°06' E 118°32'0 0.3
2017-Aug-03 21:23S 20°06' E 118°32'0 0.1
2017-Aug-03 20:53S 20°06' E 118°32'0 0.0
2017-Aug-03 20:17S 20°06' E 118°32'0 0.1
2017-Aug-03 19:59S 20°06' E 118°32'0 0.0
2017-Aug-03 19:23S 20°06' E 118°32'0 0.0
2017-Aug-03 18:59S 20°06' E 118°32'0 0.0
2017-Aug-03 18:29S 20°06' E 118°32'0 0.1
2017-Aug-03 17:47S 20°06' E 118°32'0 0.2
2017-Aug-03 17:18S 20°06' E 118°32'0 0.8
2017-Aug-03 17:00S 20°06' E 118°32'1 1.5
2017-Aug-03 16:30S 20°05' E 118°33'2 3.5
2017-Aug-03 16:00S 20°04' E 118°33'4 6.7
2017-Aug-03 15:25S 20°00' E 118°31'  
Track history (hours):
 
Tides and Currents Weather Stations Pressure Air Temp Water Temp Dewpoint Dewpoint Depression Visibility Wind Speed Wind Dir Waves Ship Positions

Aigaion

Last reported at 2017-Aug-07 15:30 UTC. Time now 2017-Aug-17 19:33 UTC.
Position S 16°23' E 117°35'.
Warning: this ship's position is 10 days out of date.

Length 289 m; draft 17.8 m.

Type: Cargo ship. MMSI: 240174000.

Date/timePositionNaut miles runAvg speedWind from/ knotsBaromVisibWave heightAir tempDewpointWater temp
2017-Aug-07 15:30S 16°23' E 117°35'5 9.6
2017-Aug-07 14:58S 16°28' E 117°36'149 9.7
2017-Aug-06 23:39S 18°53' E 118°12'1 9.7
2017-Aug-06 23:30S 18°54' E 118°12'7 9.5
2017-Aug-06 22:44S 19°01' E 118°14'3 9.2
2017-Aug-06 22:27S 19°04' E 118°15'8 9.2
2017-Aug-06 21:32S 19°12' E 118°17'0 9.2
2017-Aug-06 21:30S 19°12' E 118°17'5 9.4
2017-Aug-06 20:59S 19°17' E 118°18'5 9.6
2017-Aug-06 20:30S 19°21' E 118°19'5 9.8
2017-Aug-06 20:00S 19°26' E 118°20'5 9.9
2017-Aug-06 19:29S 19°31' E 118°22'510.0
2017-Aug-06 19:00S 19°36' E 118°23'510.1
2017-Aug-06 18:28S 19°41' E 118°24'910.0
2017-Aug-06 17:37S 19°49' E 118°26'1 9.5
2017-Aug-06 17:30S 19°50' E 118°26'5 7.2
2017-Aug-06 16:48S 19°55' E 118°27'3 9.6
2017-Aug-06 16:29S 19°58' E 118°27'611.5
2017-Aug-06 16:00S 20°03' E 118°25'611.0
2017-Aug-06 15:30S 20°08' E 118°29'5 9.7
2017-Aug-06 14:59S 20°12' E 118°32'4 8.3
2017-Aug-06 14:28S 20°15' E 118°34'4 4.1
2017-Aug-06 13:30S 20°19' E 118°35'0 0.0
2017-Aug-06 13:00S 20°19' E 118°35'0 0.0
2017-Aug-06 12:30S 20°19' E 118°35'0 0.0
2017-Aug-06 12:00S 20°19' E 118°35'0 0.0
2017-Aug-06 11:30S 20°19' E 118°35'0 0.0
2017-Aug-06 10:48S 20°19' E 118°35'0 0.0
2017-Aug-06 10:30S 20°19' E 118°35'0 0.0
2017-Aug-06 09:12S 20°19' E 118°35'0 0.0
2017-Aug-06 08:48S 20°19' E 118°35'0 0.0
2017-Aug-06 08:24S 20°19' E 118°35'0 0.0
2017-Aug-06 08:00S 20°19' E 118°35'0 0.0
2017-Aug-05 12:30S 20°19' E 118°35'0 0.0
2017-Aug-05 12:00S 20°19' E 118°35'0 0.0
2017-Aug-05 11:30S 20°19' E 118°35'0 0.0
2017-Aug-05 11:00S 20°19' E 118°35'0 0.0
2017-Aug-05 10:24S 20°19' E 118°35'0 0.0
2017-Aug-05 08:54S 20°19' E 118°35'0 0.0
2017-Aug-05 08:24S 20°19' E 118°35'0 0.0
2017-Aug-05 07:54S 20°19' E 118°35'13 1.0
2017-Aug-04 18:41S 20°06' E 118°32'0 0.0
2017-Aug-03 21:35S 20°06' E 118°32'0 0.3
2017-Aug-03 21:23S 20°06' E 118°32'0 0.1
2017-Aug-03 20:53S 20°06' E 118°32'0 0.0
2017-Aug-03 20:17S 20°06' E 118°32'0 0.1
2017-Aug-03 19:59S 20°06' E 118°32'0 0.0
2017-Aug-03 19:23S 20°06' E 118°32'0 0.0
2017-Aug-03 18:59S 20°06' E 118°32'0 0.0
2017-Aug-03 18:29S 20°06' E 118°32'0 0.1
2017-Aug-03 17:47S 20°06' E 118°32'0 0.2
2017-Aug-03 17:18S 20°06' E 118°32'0 0.8
2017-Aug-03 17:00S 20°06' E 118°32'1 1.5
2017-Aug-03 16:30S 20°05' E 118°33'2 3.5
2017-Aug-03 16:00S 20°04' E 118°33'4 6.7
2017-Aug-03 15:25S 20°00' E 118°31'  

Dump ship's entire track history